createdAt,value
2023-04-26T00:00:54.208Z,6.90
2023-04-26T00:06:06.211Z,6.90
2023-04-26T00:11:13.608Z,6.80
2023-04-26T00:16:21.358Z,6.90
2023-04-26T00:21:29.125Z,6.70
2023-04-26T00:26:36.606Z,6.60
2023-04-26T00:31:43.843Z,6.50
2023-04-26T00:36:51.365Z,6.40
2023-04-26T00:41:58.862Z,6.40
2023-04-26T00:47:06.879Z,6.60
2023-04-26T00:52:13.769Z,6.50
2023-04-26T00:57:20.969Z,6.50
2023-04-26T01:02:28.333Z,6.50
2023-04-26T01:07:39.784Z,6.40
2023-04-26T01:12:47.407Z,6.30
2023-04-26T01:17:55.282Z,6.00
2023-04-26T01:23:02.103Z,6.20
2023-04-26T01:28:09.137Z,6.30
2023-04-26T01:33:16.553Z,6.40
2023-04-26T01:38:23.442Z,6.50
2023-04-26T01:43:30.418Z,6.50
2023-04-26T01:48:37.697Z,6.40
2023-04-26T01:53:44.903Z,6.30
2023-04-26T01:58:52.080Z,6.40
2023-04-26T02:03:59.118Z,6.30
2023-04-26T02:09:06.695Z,6.30
2023-04-26T02:14:13.793Z,6.20
2023-04-26T02:19:21.259Z,6.30
2023-04-26T02:24:28.969Z,6.10
2023-04-26T02:29:44.268Z,6.30
2023-04-26T02:34:47.374Z,6.20
2023-04-26T02:39:54.594Z,6.20
2023-04-26T02:45:01.572Z,6.20
2023-04-26T02:50:10.800Z,6.20
2023-04-26T02:55:17.652Z,6.10
2023-04-26T03:00:49.316Z,5.90
2023-04-26T03:05:56.522Z,5.70
2023-04-26T03:11:03.832Z,5.70
2023-04-26T03:16:11.571Z,5.70
2023-04-26T03:21:18.681Z,5.60
2023-04-26T03:26:25.702Z,5.70
2023-04-26T03:31:32.609Z,5.60
2023-04-26T03:36:40.902Z,5.50
2023-04-26T03:41:47.950Z,5.50
2023-04-26T03:46:54.966Z,5.50
2023-04-26T03:52:02.196Z,5.70
2023-04-26T03:57:09.170Z,5.70
2023-04-26T04:02:16.297Z,5.60
2023-04-26T04:07:23.292Z,5.90
2023-04-26T04:12:30.426Z,5.90
2023-04-26T04:17:38.555Z,6.20
2023-04-26T04:22:45.939Z,6.20
2023-04-26T04:27:53.747Z,6.10
2023-04-26T04:33:01.054Z,6.10
2023-04-26T04:38:08.896Z,6.10
2023-04-26T04:43:15.955Z,6.10
2023-04-26T04:48:23.098Z,6.40
2023-04-26T04:53:30.269Z,6.10
2023-04-26T04:58:37.783Z,6.30
2023-04-26T05:03:44.730Z,6.30
2023-04-26T05:08:52.216Z,6.40
2023-04-26T05:13:59.326Z,6.50
2023-04-26T05:19:09.192Z,6.40
2023-04-26T05:24:14.765Z,6.40
2023-04-26T05:29:21.489Z,6.70
2023-04-26T05:34:45.566Z,6.70
2023-04-26T05:39:52.648Z,6.70
2023-04-26T05:45:02.785Z,6.60
2023-04-26T05:50:11.217Z,6.90
2023-04-26T05:55:17.959Z,6.90
2023-04-26T06:00:26.464Z,7.10
2023-04-26T06:05:34.121Z,7.10
2023-04-26T06:10:41.472Z,7.30
2023-04-26T06:15:48.566Z,7.30
2023-04-26T06:20:56.036Z,7.30
2023-04-26T06:26:03.121Z,7.60
2023-04-26T06:31:10.265Z,7.70
2023-04-26T06:36:17.165Z,7.80
2023-04-26T06:41:24.366Z,8.00
2023-04-26T06:46:31.273Z,8.20
2023-04-26T06:51:38.199Z,8.40
2023-04-26T06:56:45.297Z,8.40
2023-04-26T07:01:55.257Z,8.20
2023-04-26T07:07:02.015Z,8.20
2023-04-26T07:12:10.587Z,8.30
2023-04-26T07:17:17.432Z,8.30
2023-04-26T07:22:25.918Z,8.30
2023-04-26T07:27:34.444Z,8.30
2023-04-26T07:32:41.293Z,8.50
2023-04-26T07:37:48.086Z,8.50
2023-04-26T07:42:56.024Z,8.70
2023-04-26T07:48:02.980Z,8.50
2023-04-26T07:53:10.198Z,8.40
2023-04-26T07:58:17.072Z,8.40
2023-04-26T08:03:23.997Z,8.60
2023-04-26T08:08:33.748Z,8.50
2023-04-26T08:13:40.628Z,8.50
2023-04-26T08:18:48.086Z,8.50
2023-04-26T08:23:55.205Z,8.70
2023-04-26T08:29:02.727Z,8.80
2023-04-26T08:34:11.902Z,9.00
2023-04-26T08:39:19.239Z,8.80
2023-04-26T08:44:29.117Z,8.70
2023-04-26T08:49:52.166Z,8.90
2023-04-26T08:55:01.480Z,9.00
2023-04-26T09:00:11.205Z,9.10
2023-04-26T09:05:18.095Z,9.70
2023-04-26T09:10:26.016Z,11.60
2023-04-26T09:15:34.838Z,12.20
2023-04-26T09:20:41.769Z,11.30
2023-04-26T09:25:50.098Z,11.50
2023-04-26T09:30:57.039Z,11.30
2023-04-26T09:36:13.780Z,11.00
2023-04-26T09:41:20.978Z,10.70
2023-04-26T09:46:28.105Z,10.70
2023-04-26T09:51:35.333Z,10.50
2023-04-26T09:56:42.304Z,10.20
2023-04-26T10:01:49.648Z,10.00
2023-04-26T10:06:57.814Z,10.70
2023-04-26T10:12:07.453Z,10.80
2023-04-26T10:17:14.912Z,10.30
2023-04-26T10:22:28.601Z,11.30
2023-04-26T10:27:50.395Z,12.50
2023-04-26T10:33:04.823Z,12.70
2023-04-26T10:38:12.085Z,12.00
2023-04-26T10:43:24.315Z,11.30
2023-04-26T10:48:34.108Z,11.30
2023-04-26T10:53:54.950Z,11.10
2023-04-26T10:59:36.385Z,11.60
2023-04-26T11:04:50.075Z,12.00
2023-04-26T11:09:57.181Z,13.30
2023-04-26T11:15:04.458Z,13.30
2023-04-26T11:20:18.644Z,14.10
2023-04-26T11:25:29.687Z,13.30
2023-04-26T11:30:36.775Z,12.30
2023-04-26T11:35:43.574Z,11.90
2023-04-26T11:40:58.001Z,12.60
2023-04-26T11:46:06.104Z,11.90
2023-04-26T11:51:13.650Z,12.80
2023-04-26T11:56:23.392Z,12.90
2023-04-26T12:01:31.960Z,12.40
2023-04-26T12:06:47.626Z,13.00
2023-04-26T12:12:06.842Z,12.00
2023-04-26T12:17:16.267Z,12.80
2023-04-26T12:22:24.060Z,13.20
2023-04-26T12:27:31.142Z,12.90
2023-04-26T12:32:38.506Z,12.90
2023-04-26T12:37:45.610Z,12.60
2023-04-26T12:42:52.971Z,12.80
2023-04-26T12:48:00.065Z,12.90
2023-04-26T12:53:07.187Z,12.80
2023-04-26T12:58:14.901Z,12.90
2023-04-26T13:03:22.208Z,12.90
2023-04-26T13:08:30.089Z,13.50
2023-04-26T13:13:43.451Z,13.60
2023-04-26T13:18:46.968Z,13.00
2023-04-26T13:23:53.707Z,12.90
2023-04-26T13:29:00.753Z,12.70
2023-04-26T13:34:07.693Z,12.70
2023-04-26T13:39:14.573Z,12.40
2023-04-26T13:44:21.631Z,12.30
2023-04-26T13:49:28.935Z,12.40
2023-04-26T13:54:37.174Z,12.70
2023-04-26T13:59:44.369Z,13.70
2023-04-26T14:04:51.729Z,13.50
2023-04-26T14:09:59.125Z,12.90
2023-04-26T14:15:07.352Z,12.80
2023-04-26T14:20:14.401Z,12.50
2023-04-26T14:25:21.223Z,12.30
2023-04-26T14:30:28.479Z,12.20
2023-04-26T14:35:36.097Z,12.20
2023-04-26T14:40:43.359Z,11.90
2023-04-26T14:45:50.230Z,11.80
2023-04-26T14:51:02.781Z,11.70
2023-04-26T14:56:10.554Z,11.60
2023-04-26T15:01:17.440Z,11.90
2023-04-26T15:06:28.141Z,11.90
2023-04-26T15:11:36.934Z,11.90
2023-04-26T15:16:43.912Z,12.00
2023-04-26T15:21:50.775Z,12.10
2023-04-26T15:26:57.650Z,12.10
2023-04-26T15:32:04.694Z,12.00
2023-04-26T15:37:11.510Z,12.30
2023-04-26T15:42:18.407Z,12.10
2023-04-26T15:47:25.311Z,11.90
2023-04-26T15:52:39.148Z,12.20
2023-04-26T15:57:45.862Z,12.40
2023-04-26T16:02:53.002Z,12.20
2023-04-26T16:08:00.141Z,12.20
2023-04-26T16:13:07.108Z,12.00
2023-04-26T16:18:19.573Z,12.10
2023-04-26T16:23:27.049Z,12.00
2023-04-26T16:28:33.973Z,12.00
2023-04-26T16:33:40.903Z,11.90
2023-04-26T16:38:48.295Z,12.10
2023-04-26T16:43:56.215Z,12.00
2023-04-26T16:49:04.800Z,11.90
2023-04-26T16:54:12.413Z,11.90
2023-04-26T16:59:19.433Z,11.50
2023-04-26T17:04:26.790Z,11.40
2023-04-26T17:09:34.136Z,11.00
2023-04-26T17:14:42.432Z,10.60
2023-04-26T17:19:49.401Z,10.50
2023-04-26T17:24:56.326Z,10.40
2023-04-26T17:30:03.991Z,10.30
2023-04-26T17:35:11.436Z,10.20
2023-04-26T17:40:19.256Z,10.10
2023-04-26T17:45:26.158Z,9.80
2023-04-26T17:50:33.488Z,9.50
2023-04-26T17:55:41.181Z,9.30
2023-04-26T18:00:48.017Z,9.10
2023-04-26T18:05:54.824Z,8.90
2023-04-26T18:11:01.761Z,8.70
2023-04-26T18:16:08.628Z,8.60
2023-04-26T18:21:15.897Z,8.50
2023-04-26T18:26:23.433Z,8.20
2023-04-26T18:31:32.531Z,8.30
2023-04-26T18:36:39.041Z,8.10
2023-04-26T18:41:46.132Z,8.10
2023-04-26T18:46:54.476Z,8.10
2023-04-26T18:52:02.092Z,8.00
2023-04-26T18:57:10.467Z,8.20
2023-04-26T19:02:17.367Z,8.20
2023-04-26T19:07:24.431Z,8.30
2023-04-26T19:12:31.689Z,8.40
2023-04-26T19:17:38.531Z,8.30
2023-04-26T19:22:48.428Z,8.10
2023-04-26T19:27:55.410Z,8.30
2023-04-26T19:33:02.599Z,8.10
2023-04-26T19:38:10.256Z,7.80
2023-04-26T19:43:17.907Z,8.00
2023-04-26T19:48:25.023Z,7.90
2023-04-26T19:53:31.957Z,7.90
2023-04-26T19:58:39.692Z,7.90
2023-04-26T20:03:47.062Z,8.00
2023-04-26T20:08:57.894Z,8.10
2023-04-26T20:14:05.001Z,8.10
2023-04-26T20:19:12.132Z,8.30
2023-04-26T20:24:19.797Z,8.30
2023-04-26T20:29:26.588Z,8.20
2023-04-26T20:34:33.572Z,8.10
2023-04-26T20:39:41.277Z,8.10
2023-04-26T20:44:48.049Z,8.00
2023-04-26T20:49:54.960Z,8.00
2023-04-26T20:55:01.963Z,8.10
2023-04-26T21:00:11.468Z,8.30
2023-04-26T21:05:18.452Z,8.40
2023-04-26T21:10:25.449Z,8.40
2023-04-26T21:15:32.661Z,8.20
2023-04-26T21:20:39.622Z,8.10
2023-04-26T21:25:50.088Z,8.10
2023-04-26T21:31:09.320Z,8.10
2023-04-26T21:36:16.704Z,8.00
2023-04-26T21:41:24.294Z,7.80
2023-04-26T21:46:31.304Z,8.00
2023-04-26T21:51:39.083Z,7.80
2023-04-26T21:56:46.104Z,8.00
2023-04-26T22:01:53.282Z,7.50
2023-04-26T22:07:00.173Z,7.40
2023-04-26T22:12:07.247Z,7.30
2023-04-26T22:17:14.602Z,7.40
2023-04-26T22:22:21.613Z,7.50
2023-04-26T22:27:32.099Z,7.30
2023-04-26T22:32:39.455Z,7.40
2023-04-26T22:37:47.353Z,7.40
2023-04-26T22:42:55.168Z,7.30
2023-04-26T22:48:03.295Z,7.50
2023-04-26T22:53:11.162Z,7.40
2023-04-26T22:58:18.253Z,7.30
2023-04-26T23:03:25.848Z,7.30
2023-04-26T23:08:33.140Z,7.20
2023-04-26T23:13:40.141Z,7.10
2023-04-26T23:18:46.810Z,7.00
2023-04-26T23:23:53.680Z,6.60
2023-04-26T23:29:00.852Z,6.60
2023-04-26T23:34:07.665Z,6.40
2023-04-26T23:39:15.250Z,6.40
2023-04-26T23:44:22.523Z,6.50
2023-04-26T23:49:29.461Z,6.30
2023-04-26T23:54:36.655Z,6.30
2023-04-26T23:59:43.711Z,6.00
